sensor_id;sensor_type;location;lat;lon;timestamp;P1;durP1;ratioP1;P2;durP2;ratioP2
11078;SDS011;5592;49.234;7.268;2022-11-15T00:01:35;6.70;;;4.80;;
11078;SDS011;5592;49.234;7.268;2022-11-15T00:04:10;5.30;;;4.80;;
11078;SDS011;5592;49.234;7.268;2022-11-15T00:06:47;8.47;;;4.93;;
11078;SDS011;5592;49.234;7.268;2022-11-15T00:09:13;10.27;;;5.93;;
11078;SDS011;5592;49.234;7.268;2022-11-15T00:11:39;7.37;;;5.17;;
11078;SDS011;5592;49.234;7.268;2022-11-15T00:14:05;6.13;;;4.70;;
11078;SDS011;5592;49.234;7.268;2022-11-15T00:16:30;7.83;;;4.80;;
11078;SDS011;5592;49.234;7.268;2022-11-15T00:18:56;5.50;;;4.50;;
11078;SDS011;5592;49.234;7.268;2022-11-15T00:21:22;7.87;;;4.70;;
11078;SDS011;5592;49.234;7.268;2022-11-15T00:23:48;6.30;;;4.90;;
11078;SDS011;5592;49.234;7.268;2022-11-15T00:26:14;10.10;;;4.97;;
11078;SDS011;5592;49.234;7.268;2022-11-15T00:28:40;5.70;;;4.63;;
11078;SDS011;5592;49.234;7.268;2022-11-15T00:31:07;9.03;;;4.47;;
11078;SDS011;5592;49.234;7.268;2022-11-15T00:33:35;8.20;;;4.67;;
11078;SDS011;5592;49.234;7.268;2022-11-15T00:36:10;6.90;;;4.53;;
11078;SDS011;5592;49.234;7.268;2022-11-15T00:38:38;5.67;;;4.07;;
11078;SDS011;5592;49.234;7.268;2022-11-15T00:41:05;6.30;;;3.70;;
11078;SDS011;5592;49.234;7.268;2022-11-15T00:43:32;6.00;;;4.00;;
11078;SDS011;5592;49.234;7.268;2022-11-15T00:45:58;7.17;;;4.37;;
11078;SDS011;5592;49.234;7.268;2022-11-15T00:48:23;5.17;;;4.30;;
11078;SDS011;5592;49.234;7.268;2022-11-15T00:50:49;4.90;;;3.97;;
11078;SDS011;5592;49.234;7.268;2022-11-15T00:53:15;6.10;;;4.03;;
11078;SDS011;5592;49.234;7.268;2022-11-15T00:55:41;5.57;;;4.20;;
11078;SDS011;5592;49.234;7.268;2022-11-15T00:58:07;5.97;;;4.00;;
11078;SDS011;5592;49.234;7.268;2022-11-15T01:00:33;6.10;;;3.60;;
11078;SDS011;5592;49.234;7.268;2022-11-15T01:03:02;5.47;;;3.93;;
11078;SDS011;5592;49.234;7.268;2022-11-15T01:05:27;4.57;;;3.27;;
11078;SDS011;5592;49.234;7.268;2022-11-15T01:07:54;6.03;;;3.73;;
11078;SDS011;5592;49.234;7.268;2022-11-15T01:10:20;4.20;;;3.00;;
11078;SDS011;5592;49.234;7.268;2022-11-15T01:12:47;7.30;;;4.27;;
11078;SDS011;5592;49.234;7.268;2022-11-15T01:17:48;3.97;;;3.47;;
11078;SDS011;5592;49.234;7.268;2022-11-15T01:22:49;5.40;;;3.70;;
11078;SDS011;5592;49.234;7.268;2022-11-15T01:25:15;5.90;;;3.70;;
11078;SDS011;5592;49.234;7.268;2022-11-15T01:27:40;5.53;;;3.40;;
11078;SDS011;5592;49.234;7.268;2022-11-15T01:30:06;4.47;;;3.07;;
11078;SDS011;5592;49.234;7.268;2022-11-15T01:32:33;7.10;;;4.30;;
11078;SDS011;5592;49.234;7.268;2022-11-15T01:34:59;9.67;;;3.90;;
11078;SDS011;5592;49.234;7.268;2022-11-15T01:37:24;4.60;;;3.70;;
11078;SDS011;5592;49.234;7.268;2022-11-15T01:39:50;6.70;;;4.13;;
11078;SDS011;5592;49.234;7.268;2022-11-15T01:42:16;5.00;;;3.80;;
11078;SDS011;5592;49.234;7.268;2022-11-15T01:44:49;5.97;;;4.17;;
11078;SDS011;5592;49.234;7.268;2022-11-15T01:47:17;7.63;;;3.90;;
11078;SDS011;5592;49.234;7.268;2022-11-15T01:50:06;6.90;;;4.37;;
11078;SDS011;5592;49.234;7.268;2022-11-15T01:52:35;5.30;;;4.33;;
11078;SDS011;5592;49.234;7.268;2022-11-15T01:57:34;4.37;;;3.80;;
11078;SDS011;5592;49.234;7.268;2022-11-15T02:00:04;5.17;;;3.60;;
11078;SDS011;5592;49.234;7.268;2022-11-15T02:02:31;5.30;;;3.60;;
11078;SDS011;5592;49.234;7.268;2022-11-15T02:05:01;5.27;;;4.27;;
11078;SDS011;5592;49.234;7.268;2022-11-15T02:07:27;6.73;;;4.07;;
11078;SDS011;5592;49.234;7.268;2022-11-15T02:09:54;6.20;;;3.37;;
11078;SDS011;5592;49.234;7.268;2022-11-15T02:12:22;7.03;;;4.17;;
11078;SDS011;5592;49.234;7.268;2022-11-15T02:14:49;7.87;;;4.50;;
11078;SDS011;5592;49.234;7.268;2022-11-15T02:22:47;14.70;;;4.37;;
11078;SDS011;5592;49.234;7.268;2022-11-15T02:25:46;8.67;;;4.00;;
11078;SDS011;5592;49.234;7.268;2022-11-15T02:28:34;7.90;;;3.97;;
11078;SDS011;5592;49.234;7.268;2022-11-15T02:31:17;7.70;;;4.43;;
11078;SDS011;5592;49.234;7.268;2022-11-15T02:42:09;6.40;;;4.20;;
11078;SDS011;5592;49.234;7.268;2022-11-15T02:45:01;5.60;;;4.10;;
11078;SDS011;5592;49.234;7.268;2022-11-15T02:47:32;5.40;;;4.20;;
11078;SDS011;5592;49.234;7.268;2022-11-15T02:50:07;9.10;;;3.87;;
11078;SDS011;5592;49.234;7.268;2022-11-15T02:52:34;6.00;;;4.10;;
11078;SDS011;5592;49.234;7.268;2022-11-15T02:55:00;6.30;;;4.20;;
11078;SDS011;5592;49.234;7.268;2022-11-15T03:00:28;10.10;;;4.13;;
11078;SDS011;5592;49.234;7.268;2022-11-15T03:08:17;10.50;;;3.60;;
11078;SDS011;5592;49.234;7.268;2022-11-15T03:11:03;5.33;;;3.70;;
11078;SDS011;5592;49.234;7.268;2022-11-15T03:13:44;5.23;;;3.50;;
11078;SDS011;5592;49.234;7.268;2022-11-15T03:22:12;4.60;;;3.83;;
11078;SDS011;5592;49.234;7.268;2022-11-15T03:24:41;4.13;;;3.40;;
11078;SDS011;5592;49.234;7.268;2022-11-15T03:27:11;5.63;;;4.07;;
11078;SDS011;5592;49.234;7.268;2022-11-15T03:29:41;5.23;;;2.70;;
11078;SDS011;5592;49.234;7.268;2022-11-15T03:32:14;3.50;;;2.73;;
11078;SDS011;5592;49.234;7.268;2022-11-15T03:34:45;3.20;;;2.63;;
11078;SDS011;5592;49.234;7.268;2022-11-15T03:37:16;6.77;;;3.37;;
11078;SDS011;5592;49.234;7.268;2022-11-15T03:39:45;4.10;;;2.73;;
11078;SDS011;5592;49.234;7.268;2022-11-15T03:47:55;3.87;;;3.40;;
11078;SDS011;5592;49.234;7.268;2022-11-15T03:50:26;3.13;;;2.83;;
11078;SDS011;5592;49.234;7.268;2022-11-15T03:52:53;3.90;;;3.23;;
11078;SDS011;5592;49.234;7.268;2022-11-15T03:55:20;5.53;;;2.50;;
11078;SDS011;5592;49.234;7.268;2022-11-15T03:57:47;3.93;;;2.90;;
11078;SDS011;5592;49.234;7.268;2022-11-15T04:00:16;4.70;;;3.13;;
11078;SDS011;5592;49.234;7.268;2022-11-15T04:02:41;5.07;;;3.10;;
11078;SDS011;5592;49.234;7.268;2022-11-15T04:05:07;3.20;;;2.90;;
11078;SDS011;5592;49.234;7.268;2022-11-15T04:07:33;6.37;;;3.70;;
11078;SDS011;5592;49.234;7.268;2022-11-15T04:09:58;4.73;;;3.83;;
11078;SDS011;5592;49.234;7.268;2022-11-15T04:12:27;5.70;;;3.67;;
11078;SDS011;5592;49.234;7.268;2022-11-15T04:15:04;4.30;;;3.70;;
11078;SDS011;5592;49.234;7.268;2022-11-15T04:20:18;5.00;;;3.17;;
11078;SDS011;5592;49.234;7.268;2022-11-15T04:23:11;5.93;;;3.90;;
11078;SDS011;5592;49.234;7.268;2022-11-15T04:26:15;4.53;;;3.73;;
11078;SDS011;5592;49.234;7.268;2022-11-15T04:28:43;3.97;;;3.57;;
11078;SDS011;5592;49.234;7.268;2022-11-15T04:31:27;5.00;;;3.13;;
11078;SDS011;5592;49.234;7.268;2022-11-15T04:33:53;4.47;;;3.77;;
11078;SDS011;5592;49.234;7.268;2022-11-15T04:36:19;7.30;;;3.80;;
11078;SDS011;5592;49.234;7.268;2022-11-15T04:39:04;6.93;;;3.40;;
11078;SDS011;5592;49.234;7.268;2022-11-15T04:41:30;4.07;;;3.30;;
11078;SDS011;5592;49.234;7.268;2022-11-15T04:43:55;3.40;;;3.10;;
11078;SDS011;5592;49.234;7.268;2022-11-15T04:46:22;8.90;;;4.30;;
11078;SDS011;5592;49.234;7.268;2022-11-15T04:48:48;4.20;;;3.77;;
11078;SDS011;5592;49.234;7.268;2022-11-15T04:51:14;4.47;;;3.80;;
11078;SDS011;5592;49.234;7.268;2022-11-15T04:53:40;4.33;;;3.60;;
11078;SDS011;5592;49.234;7.268;2022-11-15T04:56:05;5.00;;;4.03;;
11078;SDS011;5592;49.234;7.268;2022-11-15T04:58:31;4.83;;;3.90;;
11078;SDS011;5592;49.234;7.268;2022-11-15T05:00:57;5.30;;;4.13;;
11078;SDS011;5592;49.234;7.268;2022-11-15T05:03:22;5.00;;;4.47;;
11078;SDS011;5592;49.234;7.268;2022-11-15T05:06:06;5.10;;;4.07;;
11078;SDS011;5592;49.234;7.268;2022-11-15T05:08:32;6.90;;;4.23;;
11078;SDS011;5592;49.234;7.268;2022-11-15T05:10:58;5.40;;;4.10;;
11078;SDS011;5592;49.234;7.268;2022-11-15T05:13:23;5.40;;;4.40;;
11078;SDS011;5592;49.234;7.268;2022-11-15T05:15:49;6.00;;;4.03;;
11078;SDS011;5592;49.234;7.268;2022-11-15T05:18:15;6.20;;;4.43;;
11078;SDS011;5592;49.234;7.268;2022-11-15T05:20:40;4.70;;;3.83;;
11078;SDS011;5592;49.234;7.268;2022-11-15T05:23:06;4.67;;;4.10;;
11078;SDS011;5592;49.234;7.268;2022-11-15T05:25:32;5.33;;;4.17;;
11078;SDS011;5592;49.234;7.268;2022-11-15T05:27:57;5.87;;;3.70;;
11078;SDS011;5592;49.234;7.268;2022-11-15T05:30:26;4.80;;;3.57;;
11078;SDS011;5592;49.234;7.268;2022-11-15T05:32:51;5.20;;;3.70;;
11078;SDS011;5592;49.234;7.268;2022-11-15T05:35:20;5.63;;;3.70;;
11078;SDS011;5592;49.234;7.268;2022-11-15T05:37:52;5.03;;;3.80;;
11078;SDS011;5592;49.234;7.268;2022-11-15T05:40:18;7.70;;;4.30;;
11078;SDS011;5592;49.234;7.268;2022-11-15T05:42:44;4.93;;;4.43;;
11078;SDS011;5592;49.234;7.268;2022-11-15T05:45:10;10.00;;;5.80;;
11078;SDS011;5592;49.234;7.268;2022-11-15T05:47:36;6.30;;;4.03;;
11078;SDS011;5592;49.234;7.268;2022-11-15T05:50:03;7.90;;;5.30;;
11078;SDS011;5592;49.234;7.268;2022-11-15T05:52:30;5.30;;;4.40;;
11078;SDS011;5592;49.234;7.268;2022-11-15T05:54:58;6.63;;;5.30;;
11078;SDS011;5592;49.234;7.268;2022-11-15T05:57:24;7.27;;;4.97;;
11078;SDS011;5592;49.234;7.268;2022-11-15T05:59:50;6.37;;;4.80;;
11078;SDS011;5592;49.234;7.268;2022-11-15T06:02:16;6.60;;;5.00;;
11078;SDS011;5592;49.234;7.268;2022-11-15T06:04:42;9.80;;;6.67;;
11078;SDS011;5592;49.234;7.268;2022-11-15T06:07:07;12.80;;;6.43;;
11078;SDS011;5592;49.234;7.268;2022-11-15T06:09:33;10.27;;;6.17;;
11078;SDS011;5592;49.234;7.268;2022-11-15T06:11:58;8.73;;;5.87;;
11078;SDS011;5592;49.234;7.268;2022-11-15T06:14:24;9.43;;;5.03;;
11078;SDS011;5592;49.234;7.268;2022-11-15T06:16:50;5.97;;;5.40;;
11078;SDS011;5592;49.234;7.268;2022-11-15T06:19:15;8.10;;;5.60;;
11078;SDS011;5592;49.234;7.268;2022-11-15T06:21:41;7.50;;;4.80;;
11078;SDS011;5592;49.234;7.268;2022-11-15T06:24:07;7.43;;;5.70;;
11078;SDS011;5592;49.234;7.268;2022-11-15T06:26:33;8.23;;;5.40;;
11078;SDS011;5592;49.234;7.268;2022-11-15T06:29:02;6.57;;;5.40;;
11078;SDS011;5592;49.234;7.268;2022-11-15T06:31:29;7.33;;;6.63;;
11078;SDS011;5592;49.234;7.268;2022-11-15T06:33:55;9.03;;;5.33;;
11078;SDS011;5592;49.234;7.268;2022-11-15T06:36:20;7.10;;;5.40;;
11078;SDS011;5592;49.234;7.268;2022-11-15T06:38:46;7.43;;;6.00;;
11078;SDS011;5592;49.234;7.268;2022-11-15T06:41:12;7.00;;;5.57;;
11078;SDS011;5592;49.234;7.268;2022-11-15T06:43:39;8.83;;;6.80;;
11078;SDS011;5592;49.234;7.268;2022-11-15T06:46:05;9.97;;;6.87;;
11078;SDS011;5592;49.234;7.268;2022-11-15T06:48:32;6.27;;;5.30;;
11078;SDS011;5592;49.234;7.268;2022-11-15T06:50:59;9.20;;;6.77;;
11078;SDS011;5592;49.234;7.268;2022-11-15T06:53:26;9.40;;;6.13;;
11078;SDS011;5592;49.234;7.268;2022-11-15T06:55:52;8.03;;;6.07;;
11078;SDS011;5592;49.234;7.268;2022-11-15T06:58:20;11.60;;;7.07;;
11078;SDS011;5592;49.234;7.268;2022-11-15T07:00:46;6.80;;;5.50;;
11078;SDS011;5592;49.234;7.268;2022-11-15T07:03:14;9.70;;;5.80;;
11078;SDS011;5592;49.234;7.268;2022-11-15T07:05:40;8.43;;;5.50;;
11078;SDS011;5592;49.234;7.268;2022-11-15T07:08:05;6.60;;;5.30;;
11078;SDS011;5592;49.234;7.268;2022-11-15T07:10:31;7.27;;;5.50;;
11078;SDS011;5592;49.234;7.268;2022-11-15T07:12:56;7.30;;;4.97;;
11078;SDS011;5592;49.234;7.268;2022-11-15T07:15:23;12.27;;;4.67;;
11078;SDS011;5592;49.234;7.268;2022-11-15T07:17:50;9.23;;;5.13;;
11078;SDS011;5592;49.234;7.268;2022-11-15T07:20:16;10.27;;;5.03;;
11078;SDS011;5592;49.234;7.268;2022-11-15T07:22:42;10.17;;;5.47;;
11078;SDS011;5592;49.234;7.268;2022-11-15T07:25:10;7.30;;;4.80;;
11078;SDS011;5592;49.234;7.268;2022-11-15T07:27:36;8.00;;;5.23;;
11078;SDS011;5592;49.234;7.268;2022-11-15T07:30:02;7.17;;;5.60;;
11078;SDS011;5592;49.234;7.268;2022-11-15T07:32:28;6.90;;;5.77;;
11078;SDS011;5592;49.234;7.268;2022-11-15T07:34:55;5.20;;;4.70;;
11078;SDS011;5592;49.234;7.268;2022-11-15T07:37:21;9.20;;;5.03;;
11078;SDS011;5592;49.234;7.268;2022-11-15T07:39:47;6.00;;;4.60;;
11078;SDS011;5592;49.234;7.268;2022-11-15T07:42:13;5.47;;;4.90;;
11078;SDS011;5592;49.234;7.268;2022-11-15T07:44:57;5.17;;;4.37;;
11078;SDS011;5592;49.234;7.268;2022-11-15T07:47:23;6.70;;;4.30;;
11078;SDS011;5592;49.234;7.268;2022-11-15T07:49:48;5.97;;;4.40;;
11078;SDS011;5592;49.234;7.268;2022-11-15T07:52:15;5.30;;;4.37;;
11078;SDS011;5592;49.234;7.268;2022-11-15T07:54:41;5.07;;;4.03;;
11078;SDS011;5592;49.234;7.268;2022-11-15T07:57:06;5.80;;;4.30;;
11078;SDS011;5592;49.234;7.268;2022-11-15T07:59:34;6.20;;;3.70;;
11078;SDS011;5592;49.234;7.268;2022-11-15T08:02:01;5.03;;;3.63;;
11078;SDS011;5592;49.234;7.268;2022-11-15T08:04:27;4.90;;;3.87;;
11078;SDS011;5592;49.234;7.268;2022-11-15T08:06:52;6.43;;;3.60;;
11078;SDS011;5592;49.234;7.268;2022-11-15T08:09:18;4.50;;;3.03;;
11078;SDS011;5592;49.234;7.268;2022-11-15T08:11:46;3.60;;;3.07;;
11078;SDS011;5592;49.234;7.268;2022-11-15T08:14:12;8.73;;;3.83;;
11078;SDS011;5592;49.234;7.268;2022-11-15T08:16:37;5.63;;;3.77;;
11078;SDS011;5592;49.234;7.268;2022-11-15T08:19:03;4.80;;;3.93;;
11078;SDS011;5592;49.234;7.268;2022-11-15T08:21:29;5.17;;;3.87;;
11078;SDS011;5592;49.234;7.268;2022-11-15T08:23:54;7.17;;;4.60;;
11078;SDS011;5592;49.234;7.268;2022-11-15T08:26:20;4.70;;;4.13;;
11078;SDS011;5592;49.234;7.268;2022-11-15T08:28:45;8.20;;;5.83;;
11078;SDS011;5592;49.234;7.268;2022-11-15T08:31:13;7.67;;;6.17;;
11078;SDS011;5592;49.234;7.268;2022-11-15T08:33:41;7.60;;;5.63;;
11078;SDS011;5592;49.234;7.268;2022-11-15T08:36:09;7.40;;;5.43;;
11078;SDS011;5592;49.234;7.268;2022-11-15T08:38:39;7.47;;;5.80;;
11078;SDS011;5592;49.234;7.268;2022-11-15T08:41:09;7.10;;;6.07;;
11078;SDS011;5592;49.234;7.268;2022-11-15T08:43:38;8.00;;;5.60;;
11078;SDS011;5592;49.234;7.268;2022-11-15T08:46:04;7.40;;;5.40;;
11078;SDS011;5592;49.234;7.268;2022-11-15T08:48:30;7.53;;;5.67;;
11078;SDS011;5592;49.234;7.268;2022-11-15T08:50:56;6.80;;;5.53;;
11078;SDS011;5592;49.234;7.268;2022-11-15T08:53:21;6.37;;;4.90;;
11078;SDS011;5592;49.234;7.268;2022-11-15T08:55:47;8.37;;;5.80;;
11078;SDS011;5592;49.234;7.268;2022-11-15T08:58:13;10.63;;;6.90;;
11078;SDS011;5592;49.234;7.268;2022-11-15T09:00:38;10.77;;;7.03;;
11078;SDS011;5592;49.234;7.268;2022-11-15T09:03:04;13.80;;;7.90;;
11078;SDS011;5592;49.234;7.268;2022-11-15T09:05:30;14.40;;;9.07;;
11078;SDS011;5592;49.234;7.268;2022-11-15T09:07:56;15.60;;;7.87;;
11078;SDS011;5592;49.234;7.268;2022-11-15T09:10:22;9.23;;;6.10;;
11078;SDS011;5592;49.234;7.268;2022-11-15T09:12:48;10.07;;;6.23;;
11078;SDS011;5592;49.234;7.268;2022-11-15T09:15:14;8.87;;;5.70;;
11078;SDS011;5592;49.234;7.268;2022-11-15T09:17:41;8.67;;;6.17;;
11078;SDS011;5592;49.234;7.268;2022-11-15T09:20:07;7.33;;;6.30;;
11078;SDS011;5592;49.234;7.268;2022-11-15T09:22:34;7.00;;;5.37;;
11078;SDS011;5592;49.234;7.268;2022-11-15T09:25:01;6.57;;;5.20;;
11078;SDS011;5592;49.234;7.268;2022-11-15T09:27:29;6.23;;;5.37;;
11078;SDS011;5592;49.234;7.268;2022-11-15T09:29:55;6.30;;;4.90;;
11078;SDS011;5592;49.234;7.268;2022-11-15T09:32:21;10.73;;;5.17;;
11078;SDS011;5592;49.234;7.268;2022-11-15T09:34:50;4.50;;;4.10;;
11078;SDS011;5592;49.234;7.268;2022-11-15T09:37:15;7.20;;;4.77;;
11078;SDS011;5592;49.234;7.268;2022-11-15T09:39:41;6.43;;;4.80;;
11078;SDS011;5592;49.234;7.268;2022-11-15T09:45:14;6.90;;;4.67;;
11078;SDS011;5592;49.234;7.268;2022-11-15T09:50:15;7.40;;;3.90;;
11078;SDS011;5592;49.234;7.268;2022-11-15T09:52:52;10.57;;;3.30;;
11078;SDS011;5592;49.234;7.268;2022-11-15T09:55:17;4.33;;;3.83;;
11078;SDS011;5592;49.234;7.268;2022-11-15T10:00:31;3.63;;;3.33;;
11078;SDS011;5592;49.234;7.268;2022-11-15T10:05:32;2.53;;;2.17;;
11078;SDS011;5592;49.234;7.268;2022-11-15T10:08:15;2.50;;;2.30;;
11078;SDS011;5592;49.234;7.268;2022-11-15T10:11:12;1.93;;;1.70;;
11078;SDS011;5592;49.234;7.268;2022-11-15T10:13:46;2.50;;;2.30;;
11078;SDS011;5592;49.234;7.268;2022-11-15T10:19:42;3.20;;;2.70;;
11078;SDS011;5592;49.234;7.268;2022-11-15T10:22:25;2.63;;;1.90;;
11078;SDS011;5592;49.234;7.268;2022-11-15T10:27:28;5.07;;;2.13;;
11078;SDS011;5592;49.234;7.268;2022-11-15T10:29:54;2.17;;;1.90;;
11078;SDS011;5592;49.234;7.268;2022-11-15T10:32:23;3.00;;;1.77;;
11078;SDS011;5592;49.234;7.268;2022-11-15T10:34:49;2.20;;;1.70;;
11078;SDS011;5592;49.234;7.268;2022-11-15T10:37:22;4.87;;;1.97;;
11078;SDS011;5592;49.234;7.268;2022-11-15T10:40:39;4.27;;;1.70;;
11078;SDS011;5592;49.234;7.268;2022-11-15T10:42:46;4.93;;;1.87;;
11078;SDS011;5592;49.234;7.268;2022-11-15T10:45:26;2.63;;;1.90;;
11078;SDS011;5592;49.234;7.268;2022-11-15T10:48:28;1.70;;;1.60;;
11078;SDS011;5592;49.234;7.268;2022-11-15T10:50:48;2.17;;;1.97;;
11078;SDS011;5592;49.234;7.268;2022-11-15T10:56:05;1.60;;;1.50;;
11078;SDS011;5592;49.234;7.268;2022-11-15T10:58:34;2.10;;;1.90;;
11078;SDS011;5592;49.234;7.268;2022-11-15T11:01:21;2.87;;;1.80;;
11078;SDS011;5592;49.234;7.268;2022-11-15T11:04:01;2.43;;;1.80;;
11078;SDS011;5592;49.234;7.268;2022-11-15T11:06:29;2.13;;;1.40;;
11078;SDS011;5592;49.234;7.268;2022-11-15T11:11:22;2.03;;;1.70;;
11078;SDS011;5592;49.234;7.268;2022-11-15T11:13:50;1.90;;;1.50;;
11078;SDS011;5592;49.234;7.268;2022-11-15T11:19:52;1.77;;;1.43;;
11078;SDS011;5592;49.234;7.268;2022-11-15T11:28:02;1.50;;;1.37;;
11078;SDS011;5592;49.234;7.268;2022-11-15T11:30:45;2.00;;;1.50;;
11078;SDS011;5592;49.234;7.268;2022-11-15T11:33:32;1.50;;;1.40;;
11078;SDS011;5592;49.234;7.268;2022-11-15T11:47:21;1.93;;;1.43;;
11078;SDS011;5592;49.234;7.268;2022-11-15T11:50:19;2.57;;;1.47;;
11078;SDS011;5592;49.234;7.268;2022-11-15T11:55:37;1.83;;;1.47;;
11078;SDS011;5592;49.234;7.268;2022-11-15T12:07:17;1.83;;;1.43;;
11078;SDS011;5592;49.234;7.268;2022-11-15T12:12:39;4.30;;;1.80;;
11078;SDS011;5592;49.234;7.268;2022-11-15T12:15:27;2.30;;;1.60;;
11078;SDS011;5592;49.234;7.268;2022-11-15T12:18:00;4.10;;;1.50;;
11078;SDS011;5592;49.234;7.268;2022-11-15T12:20:33;2.40;;;1.80;;
11078;SDS011;5592;49.234;7.268;2022-11-15T12:23:16;2.40;;;1.43;;
11078;SDS011;5592;49.234;7.268;2022-11-15T12:31:40;2.53;;;1.63;;
11078;SDS011;5592;49.234;7.268;2022-11-15T12:36:48;1.50;;;1.40;;
11078;SDS011;5592;49.234;7.268;2022-11-15T12:39:16;1.50;;;1.40;;
11078;SDS011;5592;49.234;7.268;2022-11-15T13:04:53;1.83;;;1.70;;
11078;SDS011;5592;49.234;7.268;2022-11-15T13:20:18;1.90;;;1.70;;
11078;SDS011;5592;49.234;7.268;2022-11-15T13:22:50;1.73;;;1.50;;
11078;SDS011;5592;49.234;7.268;2022-11-15T13:25:18;1.57;;;1.47;;
11078;SDS011;5592;49.234;7.268;2022-11-15T13:27:48;2.20;;;1.70;;
11078;SDS011;5592;49.234;7.268;2022-11-15T13:30:20;2.30;;;1.50;;
11078;SDS011;5592;49.234;7.268;2022-11-15T13:32:48;1.63;;;1.53;;
11078;SDS011;5592;49.234;7.268;2022-11-15T13:35:33;3.47;;;1.57;;
11078;SDS011;5592;49.234;7.268;2022-11-15T13:38:04;1.90;;;1.70;;
11078;SDS011;5592;49.234;7.268;2022-11-15T13:40:39;2.00;;;1.50;;
11078;SDS011;5592;49.234;7.268;2022-11-15T13:43:17;3.93;;;1.83;;
11078;SDS011;5592;49.234;7.268;2022-11-15T13:48:42;2.27;;;1.50;;
11078;SDS011;5592;49.234;7.268;2022-11-15T13:51:18;1.50;;;1.40;;
11078;SDS011;5592;49.234;7.268;2022-11-15T13:53:58;2.50;;;1.60;;
11078;SDS011;5592;49.234;7.268;2022-11-15T13:56:32;2.50;;;1.50;;
11078;SDS011;5592;49.234;7.268;2022-11-15T13:58:59;1.53;;;1.37;;
11078;SDS011;5592;49.234;7.268;2022-11-15T14:01:26;1.53;;;1.43;;
11078;SDS011;5592;49.234;7.268;2022-11-15T14:03:56;2.07;;;1.37;;
11078;SDS011;5592;49.234;7.268;2022-11-15T14:06:25;1.70;;;1.50;;
11078;SDS011;5592;49.234;7.268;2022-11-15T14:08:57;3.47;;;2.07;;
11078;SDS011;5592;49.234;7.268;2022-11-15T14:11:55;1.87;;;1.60;;
11078;SDS011;5592;49.234;7.268;2022-11-15T14:14:22;3.43;;;1.50;;
11078;SDS011;5592;49.234;7.268;2022-11-15T14:16:50;1.40;;;1.30;;
11078;SDS011;5592;49.234;7.268;2022-11-15T14:24:39;3.10;;;1.57;;
11078;SDS011;5592;49.234;7.268;2022-11-15T14:27:23;2.30;;;1.63;;
11078;SDS011;5592;49.234;7.268;2022-11-15T14:29:53;2.00;;;1.80;;
11078;SDS011;5592;49.234;7.268;2022-11-15T14:32:23;4.67;;;1.70;;
11078;SDS011;5592;49.234;7.268;2022-11-15T14:35:01;3.70;;;2.10;;
11078;SDS011;5592;49.234;7.268;2022-11-15T14:37:31;1.50;;;1.40;;
11078;SDS011;5592;49.234;7.268;2022-11-15T14:39:59;1.50;;;1.40;;
11078;SDS011;5592;49.234;7.268;2022-11-15T14:42:29;3.37;;;1.30;;
11078;SDS011;5592;49.234;7.268;2022-11-15T14:44:55;1.60;;;1.50;;
11078;SDS011;5592;49.234;7.268;2022-11-15T14:47:21;1.70;;;1.60;;
11078;SDS011;5592;49.234;7.268;2022-11-15T14:49:46;1.27;;;1.13;;
11078;SDS011;5592;49.234;7.268;2022-11-15T14:52:26;1.40;;;1.30;;
11078;SDS011;5592;49.234;7.268;2022-11-15T14:55:00;1.20;;;1.10;;
11078;SDS011;5592;49.234;7.268;2022-11-15T14:57:29;2.63;;;1.53;;
11078;SDS011;5592;49.234;7.268;2022-11-15T14:59:55;1.87;;;1.60;;
11078;SDS011;5592;49.234;7.268;2022-11-15T15:02:22;3.00;;;1.40;;
11078;SDS011;5592;49.234;7.268;2022-11-15T15:04:50;3.67;;;1.77;;
11078;SDS011;5592;49.234;7.268;2022-11-15T15:07:16;1.67;;;1.50;;
11078;SDS011;5592;49.234;7.268;2022-11-15T15:09:42;5.53;;;1.60;;
11078;SDS011;5592;49.234;7.268;2022-11-15T15:12:19;1.90;;;1.30;;
11078;SDS011;5592;49.234;7.268;2022-11-15T15:14:47;1.60;;;1.43;;
11078;SDS011;5592;49.234;7.268;2022-11-15T15:17:14;1.90;;;1.40;;
11078;SDS011;5592;49.234;7.268;2022-11-15T15:19:40;4.37;;;1.60;;
11078;SDS011;5592;49.234;7.268;2022-11-15T15:22:09;3.70;;;2.30;;
11078;SDS011;5592;49.234;7.268;2022-11-15T15:24:41;3.83;;;2.20;;
11078;SDS011;5592;49.234;7.268;2022-11-15T15:27:07;4.30;;;2.03;;
11078;SDS011;5592;49.234;7.268;2022-11-15T15:29:33;2.90;;;2.07;;
11078;SDS011;5592;49.234;7.268;2022-11-15T15:31:58;2.50;;;1.80;;
11078;SDS011;5592;49.234;7.268;2022-11-15T15:34:24;2.23;;;2.03;;
11078;SDS011;5592;49.234;7.268;2022-11-15T15:37:05;3.70;;;1.90;;
11078;SDS011;5592;49.234;7.268;2022-11-15T15:39:37;3.07;;;2.30;;
11078;SDS011;5592;49.234;7.268;2022-11-15T15:42:03;2.13;;;1.93;;
11078;SDS011;5592;49.234;7.268;2022-11-15T15:44:29;1.70;;;1.60;;
11078;SDS011;5592;49.234;7.268;2022-11-15T15:46:55;8.07;;;1.90;;
11078;SDS011;5592;49.234;7.268;2022-11-15T15:49:22;2.37;;;2.10;;
11078;SDS011;5592;49.234;7.268;2022-11-15T15:51:48;1.87;;;1.60;;
11078;SDS011;5592;49.234;7.268;2022-11-15T15:54:13;2.07;;;1.87;;
11078;SDS011;5592;49.234;7.268;2022-11-15T15:56:39;2.40;;;1.57;;
11078;SDS011;5592;49.234;7.268;2022-11-15T15:59:05;3.20;;;1.73;;
11078;SDS011;5592;49.234;7.268;2022-11-15T16:01:30;2.40;;;1.77;;
11078;SDS011;5592;49.234;7.268;2022-11-15T16:03:56;2.83;;;2.10;;
11078;SDS011;5592;49.234;7.268;2022-11-15T16:06:33;1.67;;;1.57;;
11078;SDS011;5592;49.234;7.268;2022-11-15T16:09:01;2.40;;;2.20;;
11078;SDS011;5592;49.234;7.268;2022-11-15T16:11:27;2.33;;;1.87;;
11078;SDS011;5592;49.234;7.268;2022-11-15T16:13:53;1.97;;;1.77;;
11078;SDS011;5592;49.234;7.268;2022-11-15T16:16:19;4.10;;;2.00;;
11078;SDS011;5592;49.234;7.268;2022-11-15T16:18:46;2.53;;;2.17;;
11078;SDS011;5592;49.234;7.268;2022-11-15T16:21:11;3.60;;;1.70;;
11078;SDS011;5592;49.234;7.268;2022-11-15T16:23:37;1.73;;;1.63;;
11078;SDS011;5592;49.234;7.268;2022-11-15T16:26:04;2.33;;;1.50;;
11078;SDS011;5592;49.234;7.268;2022-11-15T16:28:52;2.73;;;1.50;;
11078;SDS011;5592;49.234;7.268;2022-11-15T16:31:18;2.60;;;1.80;;
11078;SDS011;5592;49.234;7.268;2022-11-15T16:33:46;4.17;;;2.77;;
11078;SDS011;5592;49.234;7.268;2022-11-15T16:36:22;2.40;;;1.90;;
11078;SDS011;5592;49.234;7.268;2022-11-15T16:38:51;2.90;;;2.10;;
11078;SDS011;5592;49.234;7.268;2022-11-15T16:41:17;2.50;;;1.83;;
11078;SDS011;5592;49.234;7.268;2022-11-15T16:43:47;5.30;;;2.27;;
11078;SDS011;5592;49.234;7.268;2022-11-15T16:46:15;1.70;;;1.60;;
11078;SDS011;5592;49.234;7.268;2022-11-15T16:48:51;2.60;;;1.57;;
11078;SDS011;5592;49.234;7.268;2022-11-15T16:51:18;2.87;;;1.73;;
11078;SDS011;5592;49.234;7.268;2022-11-15T16:53:44;2.77;;;1.93;;
11078;SDS011;5592;49.234;7.268;2022-11-15T16:56:26;5.33;;;2.13;;
11078;SDS011;5592;49.234;7.268;2022-11-15T16:58:53;3.30;;;2.00;;
11078;SDS011;5592;49.234;7.268;2022-11-15T17:01:43;2.80;;;1.80;;
11078;SDS011;5592;49.234;7.268;2022-11-15T17:04:16;2.97;;;2.00;;
11078;SDS011;5592;49.234;7.268;2022-11-15T17:06:44;3.53;;;1.83;;
11078;SDS011;5592;49.234;7.268;2022-11-15T17:09:16;2.00;;;1.70;;
11078;SDS011;5592;49.234;7.268;2022-11-15T17:11:43;3.63;;;1.60;;
11078;SDS011;5592;49.234;7.268;2022-11-15T17:14:09;1.83;;;1.73;;
11078;SDS011;5592;49.234;7.268;2022-11-15T17:16:36;3.10;;;1.60;;
11078;SDS011;5592;49.234;7.268;2022-11-15T17:19:06;3.97;;;1.80;;
11078;SDS011;5592;49.234;7.268;2022-11-15T17:21:52;3.50;;;2.10;;
11078;SDS011;5592;49.234;7.268;2022-11-15T17:24:18;5.30;;;1.90;;
11078;SDS011;5592;49.234;7.268;2022-11-15T17:26:44;2.83;;;1.90;;
11078;SDS011;5592;49.234;7.268;2022-11-15T17:29:10;2.40;;;1.90;;
11078;SDS011;5592;49.234;7.268;2022-11-15T17:31:36;3.00;;;1.90;;
11078;SDS011;5592;49.234;7.268;2022-11-15T17:34:03;3.27;;;1.90;;
11078;SDS011;5592;49.234;7.268;2022-11-15T17:36:29;2.50;;;1.97;;
11078;SDS011;5592;49.234;7.268;2022-11-15T17:38:55;2.30;;;2.10;;
11078;SDS011;5592;49.234;7.268;2022-11-15T17:41:21;2.83;;;1.87;;
11078;SDS011;5592;49.234;7.268;2022-11-15T17:43:47;2.30;;;2.03;;
11078;SDS011;5592;49.234;7.268;2022-11-15T17:46:14;3.30;;;2.37;;
11078;SDS011;5592;49.234;7.268;2022-11-15T17:48:42;3.30;;;2.07;;